Time;durP1;ratioP1;P1;durP2;ratioP2;P2;SDS_P1;SDS_P2;PMS_P1;PMS_P2;Temp;Humidity;BMP_temperature;BMP_pressure;BME280_temperature;BME280_humidity;BME280_pressure;Samples;Min_cycle;Max_cycle;Signal;HPM_P1;HPM_P2
2021/08/21 00:01:55;;;;;;;3.83;1.25;;;;;;;;;;5095113;28;20501;-61
2021/08/21 00:04:22;;;;;;;3.70;1.77;;;;;;;;;;5089808;28;20045;-61
2021/08/21 00:06:49;;;;;;;5.88;2.38;;;;;;;;;;5086787;28;20024;-61
2021/08/21 00:09:16;;;;;;;8.93;2.88;;;;;;;;;;5088700;28;20032;-61
2021/08/21 00:11:43;;;;;;;9.77;3.25;;;;;;;;;;5107101;28;20031;-63
2021/08/21 00:14:10;;;;;;;7.93;2.50;;;;;;;;;;5108809;28;20059;-61
2021/08/21 00:16:37;;;;;;;5.23;2.40;;;;;;;;;;5111672;28;20084;-63
2021/08/21 00:19:04;;;;;;;4.00;1.90;;;;;;;;;;5111923;28;20042;-63
2021/08/21 00:21:30;;;;;;;3.77;2.13;;;;;;;;;;5085752;28;20035;-62
2021/08/21 00:23:57;;;;;;;5.40;2.57;;;;;;;;;;5079063;28;20029;-62
2021/08/21 00:26:24;;;;;;;6.93;2.20;;;;;;;;;;5070255;28;20033;-62
2021/08/21 00:28:51;;;;;;;9.33;2.40;;;;;;;;;;5066379;28;20095;-65
2021/08/21 00:31:17;;;;;;;11.73;2.30;;;;;;;;;;5066710;28;20029;-63
2021/08/21 00:33:44;;;;;;;8.57;2.13;;;;;;;;;;5097784;28;20040;-66
2021/08/21 00:36:11;;;;;;;7.47;2.33;;;;;;;;;;5087139;28;20097;-63
2021/08/21 00:38:38;;;;;;;4.50;1.80;;;;;;;;;;5091707;28;20918;-63
2021/08/21 00:41:06;;;;;;;5.13;1.87;;;;;;;;;;5091946;28;20032;-62
2021/08/21 00:43:34;;;;;;;7.73;2.30;;;;;;;;;;5095740;28;20031;-61
2021/08/21 00:46:00;;;;;;;4.70;1.90;;;;;;;;;;5111430;28;20092;-61
2021/08/21 00:48:27;;;;;;;4.63;1.83;;;;;;;;;;5111299;28;20028;-60
2021/08/21 00:50:54;;;;;;;5.87;2.10;;;;;;;;;;5102929;28;20434;-60
2021/08/21 00:53:22;;;;;;;6.40;2.00;;;;;;;;;;5088306;28;20390;-61
2021/08/21 00:55:49;;;;;;;4.57;2.40;;;;;;;;;;5090112;28;20036;-61
2021/08/21 00:58:18;;;;;;;3.13;1.87;;;;;;;;;;5090232;28;20054;-60
2021/08/21 01:00:45;;;;;;;3.17;1.70;;;;;;;;;;5096436;28;20035;-60
2021/08/21 01:03:12;;;;;;;2.97;1.60;;;;;;;;;;5095098;28;20031;-61
2021/08/21 01:05:38;;;;;;;4.67;1.63;;;;;;;;;;5096263;28;20364;-61
2021/08/21 01:08:06;;;;;;;4.30;1.87;;;;;;;;;;5115568;28;20107;-60
2021/08/21 01:10:33;;;;;;;3.70;1.70;;;;;;;;;;5115235;28;20031;-61
2021/08/21 01:12:59;;;;;;;5.10;1.57;;;;;;;;;;5110480;28;20504;-61
2021/08/21 01:15:27;;;;;;;2.50;1.13;;;;;;;;;;5110522;28;20041;-61
2021/08/21 01:17:54;;;;;;;4.37;1.30;;;;;;;;;;5090943;28;20036;-61
2021/08/21 01:20:20;;;;;;;2.50;1.30;;;;;;;;;;5089472;28;20042;-61
2021/08/21 01:22:47;;;;;;;12.57;2.33;;;;;;;;;;5094215;28;20067;-60
2021/08/21 01:25:15;;;;;;;2.80;1.70;;;;;;;;;;5095193;28;20024;-61
2021/08/21 01:27:42;;;;;;;4.70;1.67;;;;;;;;;;5094751;28;20024;-61
2021/08/21 01:30:09;;;;;;;3.60;2.00;;;;;;;;;;5094768;28;20024;-60
2021/08/21 01:32:36;;;;;;;4.23;2.17;;;;;;;;;;5094625;28;20040;-61
2021/08/21 01:35:04;;;;;;;4.57;2.30;;;;;;;;;;5090108;28;20055;-60
2021/08/21 01:37:31;;;;;;;6.13;2.17;;;;;;;;;;5089585;28;20061;-60
2021/08/21 01:39:58;;;;;;;4.20;2.43;;;;;;;;;;5091601;28;20040;-60
2021/08/21 01:42:25;;;;;;;6.23;3.23;;;;;;;;;;5109829;28;20490;-60
2021/08/21 01:44:52;;;;;;;7.40;2.57;;;;;;;;;;5113688;28;20125;-61
2021/08/21 01:47:19;;;;;;;4.47;2.60;;;;;;;;;;5114883;28;20024;-60
2021/08/21 01:49:54;;;;;;;6.10;3.40;;;;;;;;;;5114899;28;20031;-60
2021/08/21 01:52:21;;;;;;;3.53;2.23;;;;;;;;;;5112996;28;20046;-60
2021/08/21 01:54:48;;;;;;;4.10;2.40;;;;;;;;;;5114669;28;20066;-60
2021/08/21 01:57:15;;;;;;;4.73;2.23;;;;;;;;;;5069792;28;20078;-60
2021/08/21 01:59:43;;;;;;;8.17;2.47;;;;;;;;;;5068905;28;20040;-59
2021/08/21 02:02:14;;;;;;;6.10;2.37;;;;;;;;;;5071716;28;20108;-60
2021/08/21 02:04:42;;;;;;;5.77;2.33;;;;;;;;;;5088022;28;20043;-60
2021/08/21 02:07:09;;;;;;;7.70;2.43;;;;;;;;;;5092516;28;20047;-60
2021/08/21 02:09:36;;;;;;;4.33;1.80;;;;;;;;;;5094002;28;20047;-60
2021/08/21 02:12:04;;;;;;;8.27;2.90;;;;;;;;;;5093709;28;20068;-59
2021/08/21 02:14:31;;;;;;;4.10;2.40;;;;;;;;;;5094911;28;20039;-60
2021/08/21 02:17:00;;;;;;;5.60;2.53;;;;;;;;;;5093641;28;20052;-60
2021/08/21 02:19:27;;;;;;;3.70;2.30;;;;;;;;;;5090055;28;20028;-60
2021/08/21 02:21:55;;;;;;;6.30;2.50;;;;;;;;;;5088640;28;20036;-60
2021/08/21 02:24:25;;;;;;;5.17;2.50;;;;;;;;;;5088572;28;20047;-60
2021/08/21 02:27:00;;;;;;;5.53;2.47;;;;;;;;;;5088740;28;20067;-60
2021/08/21 02:29:27;;;;;;;7.40;2.03;;;;;;;;;;5091719;28;20039;-60
2021/08/21 02:31:57;;;;;;;5.80;2.33;;;;;;;;;;5093694;28;20043;-60
2021/08/21 02:34:25;;;;;;;6.60;2.50;;;;;;;;;;5093384;28;20039;-60
2021/08/21 02:36:52;;;;;;;4.83;2.13;;;;;;;;;;5093474;28;20039;-60
2021/08/21 02:39:19;;;;;;;4.63;2.63;;;;;;;;;;5102745;28;20047;-60
2021/08/21 02:41:46;;;;;;;3.17;1.90;;;;;;;;;;5110122;28;20051;-60
2021/08/21 02:44:13;;;;;;;4.23;2.27;;;;;;;;;;5108488;28;20035;-60
2021/08/21 02:46:40;;;;;;;5.47;2.00;;;;;;;;;;5107757;28;20065;-60
2021/08/21 02:49:07;;;;;;;5.47;2.27;;;;;;;;;;5108607;28;20044;-60
2021/08/21 02:51:34;;;;;;;4.23;1.90;;;;;;;;;;5109456;28;20360;-61
2021/08/21 02:54:00;;;;;;;9.57;2.60;;;;;;;;;;5113332;28;20059;-60
2021/08/21 02:56:27;;;;;;;5.53;2.47;;;;;;;;;;5113639;28;20069;-60
2021/08/21 02:58:54;;;;;;;5.40;2.13;;;;;;;;;;5111557;28;20118;-60
2021/08/21 03:01:21;;;;;;;3.80;2.13;;;;;;;;;;5112315;28;20039;-61
2021/08/21 03:03:47;;;;;;;4.57;2.20;;;;;;;;;;5096229;28;20479;-60
2021/08/21 03:06:14;;;;;;;4.90;2.30;;;;;;;;;;5095664;28;20030;-61
2021/08/21 03:08:41;;;;;;;6.37;2.50;;;;;;;;;;5108099;28;20039;-61
2021/08/21 03:11:08;;;;;;;5.83;2.50;;;;;;;;;;5108201;28;20028;-60
2021/08/21 03:13:34;;;;;;;4.57;2.30;;;;;;;;;;5110468;28;20118;-60
2021/08/21 03:16:01;;;;;;;3.63;1.93;;;;;;;;;;5110593;28;20387;-60
2021/08/21 03:18:28;;;;;;;4.40;2.37;;;;;;;;;;5112886;28;20164;-60
2021/08/21 03:20:55;;;;;;;5.87;2.70;;;;;;;;;;5112876;28;20028;-60
2021/08/21 03:23:21;;;;;;;6.33;2.57;;;;;;;;;;5095658;28;20089;-60
2021/08/21 03:25:48;;;;;;;4.13;2.57;;;;;;;;;;5090150;28;20071;-60
2021/08/21 03:28:15;;;;;;;4.03;2.40;;;;;;;;;;5093258;28;20035;-61
2021/08/21 03:30:42;;;;;;;4.77;2.40;;;;;;;;;;5107727;28;20035;-60
2021/08/21 03:33:09;;;;;;;5.27;2.73;;;;;;;;;;5107746;28;20031;-60
2021/08/21 03:35:36;;;;;;;6.30;2.90;;;;;;;;;;5109260;28;20363;-60
2021/08/21 03:38:03;;;;;;;5.03;2.67;;;;;;;;;;5112445;28;20478;-60
2021/08/21 03:40:30;;;;;;;3.20;2.10;;;;;;;;;;5105585;28;20089;-60
2021/08/21 03:42:57;;;;;;;5.17;2.83;;;;;;;;;;5093656;28;20870;-60
2021/08/21 03:45:23;;;;;;;6.60;2.80;;;;;;;;;;5092353;28;20498;-60
2021/08/21 03:47:50;;;;;;;6.57;2.90;;;;;;;;;;5090720;28;20475;-60
2021/08/21 03:50:17;;;;;;;6.93;2.70;;;;;;;;;;5087017;28;20503;-60
2021/08/21 03:52:44;;;;;;;7.37;3.13;;;;;;;;;;5089349;28;20687;-60
2021/08/21 03:55:11;;;;;;;4.13;2.73;;;;;;;;;;5107043;28;20363;-60
2021/08/21 03:57:38;;;;;;;4.70;3.17;;;;;;;;;;5108336;28;20044;-60
2021/08/21 04:00:05;;;;;;;4.53;2.43;;;;;;;;;;5094582;28;20440;-60
2021/08/21 04:02:32;;;;;;;5.93;3.10;;;;;;;;;;5112681;28;20059;-60
2021/08/21 04:04:59;;;;;;;4.53;2.23;;;;;;;;;;5108668;28;20024;-60
2021/08/21 04:07:26;;;;;;;6.13;2.40;;;;;;;;;;5092094;28;20032;-60
2021/08/21 04:09:53;;;;;;;4.00;2.67;;;;;;;;;;5090825;28;20036;-60
2021/08/21 04:12:19;;;;;;;4.40;2.70;;;;;;;;;;5086337;28;20085;-60
2021/08/21 04:14:47;;;;;;;4.43;2.40;;;;;;;;;;5086811;28;20032;-60
2021/08/21 04:17:13;;;;;;;3.70;2.40;;;;;;;;;;5091824;28;20114;-61
2021/08/21 04:19:40;;;;;;;5.30;2.20;;;;;;;;;;5107230;28;20040;-61
2021/08/21 04:22:07;;;;;;;4.97;2.90;;;;;;;;;;5103965;28;20089;-60
2021/08/21 04:24:34;;;;;;;4.03;2.77;;;;;;;;;;5092853;28;20172;-61
2021/08/21 04:27:01;;;;;;;4.37;2.40;;;;;;;;;;5091936;28;20028;-61
2021/08/21 04:29:27;;;;;;;4.13;2.80;;;;;;;;;;5095298;28;20081;-61
2021/08/21 04:31:54;;;;;;;4.80;2.63;;;;;;;;;;5095573;28;20371;-59
2021/08/21 04:34:21;;;;;;;5.67;2.53;;;;;;;;;;5090905;28;20027;-60
2021/08/21 04:36:48;;;;;;;5.00;2.70;;;;;;;;;;5109924;28;20063;-60
2021/08/21 04:39:15;;;;;;;4.70;3.00;;;;;;;;;;5111146;28;20099;-60
2021/08/21 04:41:42;;;;;;;5.50;2.20;;;;;;;;;;5110998;28;20050;-60
2021/08/21 04:44:08;;;;;;;5.83;2.17;;;;;;;;;;5116076;28;20062;-61
2021/08/21 04:46:35;;;;;;;4.50;2.43;;;;;;;;;;5112054;28;20024;-61
2021/08/21 04:49:02;;;;;;;4.73;3.10;;;;;;;;;;5095613;28;20039;-61
2021/08/21 04:51:29;;;;;;;7.17;2.63;;;;;;;;;;5095681;28;20036;-60
2021/08/21 04:53:56;;;;;;;3.63;2.40;;;;;;;;;;5096429;28;20105;-60
2021/08/21 04:56:22;;;;;;;5.43;2.60;;;;;;;;;;5101337;28;20173;-61
2021/08/21 04:58:49;;;;;;;5.37;2.90;;;;;;;;;;5091066;28;20040;-61
2021/08/21 05:01:16;;;;;;;5.50;2.70;;;;;;;;;;5090183;28;20020;-61
2021/08/21 05:03:43;;;;;;;6.50;3.13;;;;;;;;;;5097471;28;20030;-60
2021/08/21 05:06:11;;;;;;;6.63;3.40;;;;;;;;;;5103164;28;20056;-60
2021/08/21 05:08:44;;;;;;;6.60;3.33;;;;;;;;;;5083894;28;20116;-60
2021/08/21 05:11:11;;;;;;;4.70;2.70;;;;;;;;;;5067763;28;20036;-59
2021/08/21 05:13:38;;;;;;;6.27;3.37;;;;;;;;;;5075199;28;20028;-60
2021/08/21 05:16:05;;;;;;;9.30;3.20;;;;;;;;;;5090322;28;20032;-59
2021/08/21 05:18:36;;;;;;;5.47;3.30;;;;;;;;;;5089802;28;20039;-59
2021/08/21 05:21:13;;;;;;;4.20;2.87;;;;;;;;;;5090817;28;20539;-59
2021/08/21 05:23:40;;;;;;;5.33;3.10;;;;;;;;;;5089831;28;20028;-59
2021/08/21 05:26:08;;;;;;;7.80;3.00;;;;;;;;;;5089676;28;20024;-59
2021/08/21 05:28:36;;;;;;;6.00;3.27;;;;;;;;;;5094227;28;20032;-60
2021/08/21 05:31:02;;;;;;;4.90;3.17;;;;;;;;;;5113359;28;20035;-58
2021/08/21 05:33:29;;;;;;;6.80;3.13;;;;;;;;;;5115304;28;20028;-59
2021/08/21 05:35:57;;;;;;;8.13;3.40;;;;;;;;;;5115216;28;20096;-59
2021/08/21 05:38:23;;;;;;;4.80;3.10;;;;;;;;;;5115095;28;20114;-60
2021/08/21 05:40:50;;;;;;;9.37;2.97;;;;;;;;;;5106987;28;20038;-59
2021/08/21 05:43:17;;;;;;;5.37;3.50;;;;;;;;;;5089458;28;20043;-59
2021/08/21 05:45:44;;;;;;;5.50;3.20;;;;;;;;;;5089340;28;20028;-59
2021/08/21 05:48:10;;;;;;;4.17;3.00;;;;;;;;;;5089169;28;20042;-59
2021/08/21 05:50:37;;;;;;;6.67;3.37;;;;;;;;;;5093347;28;20031;-59
2021/08/21 05:53:04;;;;;;;8.27;2.87;;;;;;;;;;5100127;28;20031;-59
2021/08/21 05:55:31;;;;;;;4.07;2.67;;;;;;;;;;5114618;28;20398;-59
2021/08/21 05:57:58;;;;;;;5.23;3.17;;;;;;;;;;5114863;28;20103;-59
2021/08/21 06:00:25;;;;;;;5.47;3.33;;;;;;;;;;5114662;28;20394;-59
2021/08/21 06:02:52;;;;;;;4.90;3.13;;;;;;;;;;5110254;28;20431;-59
2021/08/21 06:05:19;;;;;;;4.60;3.40;;;;;;;;;;5100841;28;20092;-59
2021/08/21 06:07:45;;;;;;;5.13;3.50;;;;;;;;;;5088953;28;20119;-59
2021/08/21 06:10:12;;;;;;;8.43;3.83;;;;;;;;;;5088727;28;20044;-59
2021/08/21 06:12:39;;;;;;;7.03;3.20;;;;;;;;;;5092328;28;20070;-59
2021/08/21 06:15:06;;;;;;;4.57;2.97;;;;;;;;;;5094203;28;20028;-59
2021/08/21 06:17:33;;;;;;;6.47;3.37;;;;;;;;;;5105416;28;20024;-59
2021/08/21 06:19:59;;;;;;;6.73;2.97;;;;;;;;;;5114285;28;20039;-59
2021/08/21 06:22:26;;;;;;;6.27;3.40;;;;;;;;;;5114175;28;20394;-59
2021/08/21 06:24:53;;;;;;;10.97;3.87;;;;;;;;;;5110764;28;20516;-59
2021/08/21 06:27:20;;;;;;;6.20;3.13;;;;;;;;;;5108840;28;20758;-59
2021/08/21 06:29:47;;;;;;;12.90;3.40;;;;;;;;;;5095128;28;20044;-59
2021/08/21 06:32:13;;;;;;;5.03;3.07;;;;;;;;;;5088449;28;20571;-60
2021/08/21 06:34:40;;;;;;;5.80;3.10;;;;;;;;;;5091614;28;20382;-59
2021/08/21 06:37:08;;;;;;;4.43;3.30;;;;;;;;;;5093690;28;20031;-59
2021/08/21 06:39:35;;;;;;;6.27;3.33;;;;;;;;;;5093372;28;20382;-59
2021/08/21 06:42:02;;;;;;;5.43;3.53;;;;;;;;;;5107112;28;20462;-59
2021/08/21 06:44:29;;;;;;;4.20;2.53;;;;;;;;;;5113967;28;20576;-59
2021/08/21 06:46:56;;;;;;;7.53;3.20;;;;;;;;;;5110839;28;20031;-59
2021/08/21 06:49:23;;;;;;;5.20;3.13;;;;;;;;;;5108246;28;20027;-59
2021/08/21 06:51:50;;;;;;;4.10;2.90;;;;;;;;;;5108444;28;20031;-59
2021/08/21 06:54:16;;;;;;;8.40;3.20;;;;;;;;;;5091247;28;20081;-59
2021/08/21 06:56:43;;;;;;;4.27;2.67;;;;;;;;;;5089715;28;20115;-59
2021/08/21 06:59:10;;;;;;;5.07;2.90;;;;;;;;;;5093308;28;20031;-59
2021/08/21 07:01:39;;;;;;;4.73;2.90;;;;;;;;;;5099325;28;20043;-59
2021/08/21 07:04:06;;;;;;;4.07;2.50;;;;;;;;;;5113689;28;20066;-59
2021/08/21 07:06:33;;;;;;;9.30;2.77;;;;;;;;;;5113442;28;20035;-59
2021/08/21 07:09:00;;;;;;;6.63;2.83;;;;;;;;;;5111244;28;20513;-59
2021/08/21 07:11:27;;;;;;;6.10;3.10;;;;;;;;;;5103089;28;20100;-59
2021/08/21 07:13:54;;;;;;;7.53;3.17;;;;;;;;;;5087138;28;20035;-59
2021/08/21 07:16:21;;;;;;;5.57;3.13;;;;;;;;;;5087560;28;20099;-59
2021/08/21 07:18:48;;;;;;;6.33;3.30;;;;;;;;;;5088650;28;20020;-59
2021/08/21 07:21:14;;;;;;;5.43;3.57;;;;;;;;;;5092963;28;20064;-59
2021/08/21 07:23:41;;;;;;;8.70;3.27;;;;;;;;;;5101449;28;20031;-59
2021/08/21 07:26:08;;;;;;;6.60;3.10;;;;;;;;;;5113271;28;20042;-59
2021/08/21 07:28:35;;;;;;;7.67;3.20;;;;;;;;;;5113073;28;20046;-59
2021/08/21 07:31:02;;;;;;;6.07;3.77;;;;;;;;;;5111260;28;20485;-59
2021/08/21 07:33:29;;;;;;;10.90;4.10;;;;;;;;;;5107482;28;20101;-59
2021/08/21 07:35:56;;;;;;;6.60;3.80;;;;;;;;;;5098407;28;20044;-59
2021/08/21 07:38:23;;;;;;;6.50;3.10;;;;;;;;;;5106944;28;20478;-59
2021/08/21 07:40:50;;;;;;;6.10;2.90;;;;;;;;;;5107762;28;20070;-59
2021/08/21 07:43:17;;;;;;;5.10;3.30;;;;;;;;;;5112934;28;20077;-59
2021/08/21 07:45:46;;;;;;;8.43;2.77;;;;;;;;;;5112491;28;20092;-59
2021/08/21 07:48:13;;;;;;;6.13;4.03;;;;;;;;;;5110967;28;20039;-59
2021/08/21 07:50:40;;;;;;;5.67;3.23;;;;;;;;;;5113075;28;20019;-59
2021/08/21 07:53:07;;;;;;;6.57;3.20;;;;;;;;;;5111586;28;20019;-59
2021/08/21 07:55:34;;;;;;;6.20;2.57;;;;;;;;;;5107482;28;20112;-59
2021/08/21 07:58:01;;;;;;;5.77;2.87;;;;;;;;;;5107352;28;20027;-59
2021/08/21 08:00:27;;;;;;;6.70;3.43;;;;;;;;;;5088675;28;20477;-59
2021/08/21 08:02:54;;;;;;;6.97;3.13;;;;;;;;;;5084257;28;20028;-59
2021/08/21 08:05:21;;;;;;;5.03;3.10;;;;;;;;;;5092290;28;20016;-59
2021/08/21 08:07:48;;;;;;;4.83;2.93;;;;;;;;;;5090976;28;20024;-59
2021/08/21 08:10:15;;;;;;;4.77;2.97;;;;;;;;;;5090750;28;20024;-59
2021/08/21 08:12:42;;;;;;;7.67;3.00;;;;;;;;;;5112014;28;20032;-58
2021/08/21 08:15:09;;;;;;;7.60;3.60;;;;;;;;;;5112162;28;20023;-59
2021/08/21 08:17:35;;;;;;;8.47;3.10;;;;;;;;;;5105428;28;20027;-59
2021/08/21 08:20:02;;;;;;;5.83;3.40;;;;;;;;;;5101306;28;20028;-59
2021/08/21 08:22:29;;;;;;;6.67;3.13;;;;;;;;;;5086808;28;20058;-59
2021/08/21 08:24:56;;;;;;;5.23;3.30;;;;;;;;;;5086900;28;20095;-59
2021/08/21 08:27:22;;;;;;;7.37;3.33;;;;;;;;;;5091690;28;20039;-58
2021/08/21 08:29:49;;;;;;;5.20;3.40;;;;;;;;;;5094956;28;20026;-58
2021/08/21 08:32:16;;;;;;;5.50;3.33;;;;;;;;;;5112499;28;20047;-58
2021/08/21 08:34:43;;;;;;;7.43;3.30;;;;;;;;;;5112525;28;20031;-59
2021/08/21 08:37:12;;;;;;;6.87;3.47;;;;;;;;;;5112001;28;20024;-59
2021/08/21 08:39:39;;;;;;;8.13;3.20;;;;;;;;;;5106916;28;20047;-59
2021/08/21 08:42:08;;;;;;;7.60;3.60;;;;;;;;;;5100715;28;20024;-59
2021/08/21 08:44:36;;;;;;;6.70;3.80;;;;;;;;;;5086191;28;20036;-59
2021/08/21 08:47:03;;;;;;;11.00;3.73;;;;;;;;;;5086501;28;20410;-59
2021/08/21 08:49:30;;;;;;;7.43;3.40;;;;;;;;;;5108873;28;20420;-58
2021/08/21 08:51:57;;;;;;;7.90;4.10;;;;;;;;;;5111923;28;20457;-59
2021/08/21 08:54:24;;;;;;;8.50;4.13;;;;;;;;;;5112253;28;20481;-58
2021/08/21 08:56:51;;;;;;;7.80;3.93;;;;;;;;;;5112081;28;20032;-59
2021/08/21 08:59:17;;;;;;;5.23;3.20;;;;;;;;;;5097114;28;20047;-59
2021/08/21 09:01:44;;;;;;;8.17;3.50;;;;;;;;;;5087028;28;20024;-59
2021/08/21 09:04:22;;;;;;;5.50;3.70;;;;;;;;;;5086723;28;20050;-59
2021/08/21 09:06:50;;;;;;;5.73;3.20;;;;;;;;;;5085976;28;20045;-59
2021/08/21 09:09:17;;;;;;;8.07;2.97;;;;;;;;;;5086420;28;20028;-59
2021/08/21 09:11:46;;;;;;;8.90;3.90;;;;;;;;;;5090553;28;20027;-58
2021/08/21 09:14:17;;;;;;;8.40;3.37;;;;;;;;;;5091965;28;20032;-58
2021/08/21 09:16:44;;;;;;;7.27;3.80;;;;;;;;;;5099248;28;20372;-59
2021/08/21 09:19:11;;;;;;;6.10;3.40;;;;;;;;;;5107841;28;20032;-59
2021/08/21 09:21:38;;;;;;;6.30;4.30;;;;;;;;;;5115418;28;20023;-58
2021/08/21 09:24:23;;;;;;;7.83;3.83;;;;;;;;;;5110675;28;20108;-59
2021/08/21 09:26:49;;;;;;;;;;;;;;;;;;5110837;28;20435;-59
2021/08/21 09:29:27;;;;;;;7.60;3.90;;;;;;;;;;5096199;28;19915;-59
2021/08/21 09:32:05;;;;;;;7.73;3.80;;;;;;;;;;5089193;28;20036;-59
2021/08/21 09:34:32;;;;;;;6.30;4.13;;;;;;;;;;5094895;28;20099;-59
2021/08/21 09:36:59;;;;;;;7.63;4.20;;;;;;;;;;5106799;28;20015;-59
2021/08/21 09:39:40;;;;;;;10.50;5.00;;;;;;;;;;5115170;28;20046;-59
2021/08/21 09:42:08;;;;;;;9.67;5.57;;;;;;;;;;5114917;28;20486;-59
2021/08/21 09:44:38;;;;;;;13.77;5.10;;;;;;;;;;5114154;28;20098;-59
2021/08/21 09:47:32;;;;;;;9.23;5.17;;;;;;;;;;5097237;28;20050;-58
2021/08/21 09:50:16;;;;;;;10.40;5.07;;;;;;;;;;5078545;28;20055;-59
2021/08/21 09:52:43;;;;;;;9.43;5.80;;;;;;;;;;5107059;28;20039;-59
2021/08/21 09:55:14;;;;;;;8.03;5.27;;;;;;;;;;5111466;28;20020;-59
2021/08/21 09:57:41;;;;;;;10.57;5.77;;;;;;;;;;5114843;28;20024;-59
2021/08/21 10:00:09;;;;;;;12.60;5.80;;;;;;;;;;5114903;28;20024;-59
2021/08/21 10:02:35;;;;;;;10.00;5.67;;;;;;;;;;5098332;28;20467;-59
2021/08/21 10:05:03;;;;;;;10.43;6.73;;;;;;;;;;5093833;28;20073;-59
2021/08/21 10:07:35;;;;;;;10.93;7.07;;;;;;;;;;5092514;28;20409;-59
2021/08/21 10:10:02;;;;;;;9.70;6.27;;;;;;;;;;5088723;28;20032;-59
2021/08/21 10:12:29;;;;;;;9.67;6.73;;;;;;;;;;5089691;28;20059;-58
2021/08/21 10:14:56;;;;;;;10.13;6.67;;;;;;;;;;5109401;28;20019;-59
2021/08/21 10:17:23;;;;;;;10.20;5.90;;;;;;;;;;5110832;28;20418;-58
2021/08/21 10:19:50;;;;;;;9.40;6.67;;;;;;;;;;5114101;28;20478;-58
2021/08/21 10:22:20;;;;;;;10.13;6.50;;;;;;;;;;5114220;28;20034;-59
2021/08/21 10:24:48;;;;;;;8.40;6.00;;;;;;;;;;5108404;28;20457;-58
2021/08/21 10:27:20;;;;;;;8.07;5.50;;;;;;;;;;5093471;28;20035;-59
2021/08/21 10:30:07;;;;;;;7.63;5.20;;;;;;;;;;5091779;28;20114;-59
2021/08/21 10:32:36;;;;;;;9.73;5.73;;;;;;;;;;5088644;28;20421;-59
2021/08/21 10:35:04;;;;;;;10.67;5.93;;;;;;;;;;5088451;28;20055;-59
2021/08/21 10:37:36;;;;;;;9.63;6.13;;;;;;;;;;5101388;28;20032;-58
2021/08/21 10:40:21;;;;;;;11.20;6.17;;;;;;;;;;5111028;28;20027;-58
2021/08/21 10:42:53;;;;;;;7.82;5.63;;;;;;;;;;5114056;28;20106;-59
2021/08/21 10:45:55;;;;;;;9.07;6.27;;;;;;;;;;5113704;28;20412;-59
2021/08/21 10:48:29;;;;;;;8.47;6.07;;;;;;;;;;5026919;28;20025;-59
2021/08/21 10:50:55;;;;;;;8.13;6.70;;;;;;;;;;5081556;28;20376;-58
2021/08/21 10:53:23;;;;;;;9.73;5.93;;;;;;;;;;5088729;28;20114;-59
2021/08/21 10:55:51;;;;;;;11.47;7.57;;;;;;;;;;5088139;28;20516;-59
2021/08/21 10:58:19;;;;;;;10.30;6.80;;;;;;;;;;5088346;28;20024;-58
2021/08/21 11:00:47;;;;;;;12.37;8.67;;;;;;;;;;5095281;28;20138;-59
2021/08/21 11:03:18;;;;;;;17.20;9.33;;;;;;;;;;5111746;28;20034;-58
2021/08/21 11:05:51;;;;;;;14.67;10.00;;;;;;;;;;5113784;28;20513;-58
2021/08/21 11:08:19;;;;;;;14.63;10.13;;;;;;;;;;5113460;28;20030;-59
2021/08/21 11:10:46;;;;;;;13.80;9.03;;;;;;;;;;5113624;28;20103;-58
2021/08/21 11:13:32;;;;;;;11.70;7.80;;;;;;;;;;5099795;28;20028;-58
2021/08/21 11:16:03;;;;;;;10.17;6.80;;;;;;;;;;5087712;28;20077;-58
2021/08/21 11:18:30;;;;;;;10.80;7.20;;;;;;;;;;5087456;28;20032;-59
2021/08/21 11:20:57;;;;;;;11.27;7.83;;;;;;;;;;5087583;28;20059;-59
2021/08/21 11:23:23;;;;;;;12.73;6.77;;;;;;;;;;5087622;28;20131;-58
2021/08/21 11:25:50;;;;;;;11.80;6.63;;;;;;;;;;5112559;28;20351;-58
2021/08/21 11:28:29;;;;;;;10.30;6.63;;;;;;;;;;5112920;28;20046;-58
2021/08/21 11:31:12;;;;;;;10.27;6.93;;;;;;;;;;5113280;28;20027;-58
2021/08/21 11:33:40;;;;;;;8.63;6.23;;;;;;;;;;5113071;28;20016;-59
2021/08/21 11:36:08;;;;;;;14.63;6.83;;;;;;;;;;5104942;28;20016;-58
2021/08/21 11:38:36;;;;;;;11.03;6.80;;;;;;;;;;5086218;28;20036;-59
2021/08/21 11:41:04;;;;;;;10.50;7.23;;;;;;;;;;5087299;28;20097;-59
2021/08/21 11:43:32;;;;;;;9.63;7.60;;;;;;;;;;5087345;28;20035;-59
2021/08/21 11:46:00;;;;;;;9.40;6.90;;;;;;;;;;5087271;28;20111;-59
2021/08/21 11:48:30;;;;;;;10.93;7.10;;;;;;;;;;5100146;28;20023;-58
2021/08/21 11:50:57;;;;;;;10.30;6.70;;;;;;;;;;5112912;28;20023;-59
2021/08/21 11:53:26;;;;;;;8.77;5.80;;;;;;;;;;5112348;28;20020;-59
2021/08/21 11:55:54;;;;;;;11.13;6.87;;;;;;;;;;5112774;28;20034;-59
2021/08/21 11:58:50;;;;;;;9.73;5.93;;;;;;;;;;5112695;28;20355;-59
2021/08/21 12:01:20;;;;;;;8.77;6.17;;;;;;;;;;5088468;28;20051;-58
2021/08/21 12:06:32;;;;;;;9.70;6.43;;;;;;;;;;5107404;28;20028;-58
2021/08/21 12:09:08;;;;;;;9.18;5.90;;;;;;;;;;5106663;28;20035;-58
2021/08/21 12:11:35;;;;;;;12.00;5.97;;;;;;;;;;5112424;28;20347;-58
2021/08/21 12:14:02;;;;;;;11.17;6.53;;;;;;;;;;5112645;28;20343;-59
2021/08/21 12:16:30;;;;;;;9.03;6.53;;;;;;;;;;5112663;28;20094;-58
2021/08/21 12:18:57;;;;;;;11.10;6.87;;;;;;;;;;5100311;28;20028;-58
2021/08/21 12:21:24;;;;;;;11.80;6.57;;;;;;;;;;5090314;28;20028;-59
2021/08/21 12:23:52;;;;;;;11.07;6.07;;;;;;;;;;5098897;28;20035;-58
2021/08/21 12:26:37;;;;;;;8.43;6.17;;;;;;;;;;5107078;28;20086;-59
2021/08/21 12:29:04;;;;;;;10.33;6.70;;;;;;;;;;5107080;28;20054;-58
2021/08/21 12:31:41;;;;;;;8.97;6.53;;;;;;;;;;5108595;28;20136;-59
2021/08/21 12:34:08;;;;;;;9.87;7.13;;;;;;;;;;5098536;28;20467;-60
2021/08/21 12:36:41;;;;;;;8.60;6.60;;;;;;;;;;5092148;28;20016;-58
2021/08/21 12:39:12;;;;;;;7.67;6.33;;;;;;;;;;5091913;28;20020;-58
2021/08/21 12:41:50;;;;;;;12.50;6.57;;;;;;;;;;5091897;28;20501;-59
2021/08/21 12:44:18;;;;;;;12.60;7.30;;;;;;;;;;5089120;28;20107;-58
2021/08/21 12:46:58;;;;;;;12.53;6.90;;;;;;;;;;5105222;28;20028;-59
2021/08/21 12:49:30;;;;;;;11.03;6.70;;;;;;;;;;5109229;28;20030;-59
2021/08/21 12:51:57;;;;;;;9.60;6.93;;;;;;;;;;5110964;28;20031;-59
2021/08/21 12:54:31;;;;;;;10.63;7.40;;;;;;;;;;5113580;28;20051;-58
2021/08/21 12:57:05;;;;;;;10.55;6.93;;;;;;;;;;5112419;28;20016;-58
2021/08/21 12:59:32;;;;;;;10.33;7.07;;;;;;;;;;5095229;28;20036;-58
2021/08/21 13:02:09;;;;;;;8.93;6.63;;;;;;;;;;5095527;28;20043;-59
2021/08/21 13:04:36;;;;;;;10.57;7.13;;;;;;;;;;5095651;28;20035;-59
2021/08/21 13:07:04;;;;;;;13.57;7.37;;;;;;;;;;5093885;28;20051;-60
2021/08/21 13:09:31;;;;;;;12.27;7.70;;;;;;;;;;5110198;28;20055;-59
2021/08/21 13:11:58;;;;;;;9.43;7.23;;;;;;;;;;5110131;28;20015;-58
2021/08/21 13:14:25;;;;;;;12.03;8.07;;;;;;;;;;5110225;28;20028;-59
2021/08/21 13:16:52;;;;;;;10.63;7.63;;;;;;;;;;5112947;28;20027;-59
2021/08/21 13:19:19;;;;;;;11.17;7.93;;;;;;;;;;5095463;28;20032;-59
2021/08/21 13:21:46;;;;;;;11.70;7.83;;;;;;;;;;5095127;28;20047;-59
2021/08/21 13:24:13;;;;;;;9.27;7.63;;;;;;;;;;5095054;28;20031;-59
2021/08/21 13:26:40;;;;;;;11.97;8.10;;;;;;;;;;5095062;28;20028;-58
2021/08/21 13:29:07;;;;;;;12.87;8.47;;;;;;;;;;5093255;28;20528;-59
2021/08/21 13:31:34;;;;;;;13.70;7.83;;;;;;;;;;5110155;28;20493;-58
2021/08/21 13:34:07;;;;;;;14.13;8.10;;;;;;;;;;5110151;28;20035;-58
2021/08/21 13:36:38;;;;;;;12.13;7.53;;;;;;;;;;5109944;28;20055;-59
2021/08/21 13:39:06;;;;;;;12.33;8.70;;;;;;;;;;5112664;28;20098;-58
2021/08/21 13:41:34;;;;;;;17.07;9.73;;;;;;;;;;5112852;28;20020;-58
2021/08/21 13:44:01;;;;;;;10.50;7.90;;;;;;;;;;5114726;28;20072;-58
2021/08/21 13:46:28;;;;;;;15.90;8.80;;;;;;;;;;5115301;28;20049;-58
2021/08/21 13:48:55;;;;;;;11.07;7.53;;;;;;;;;;5115113;28;20020;-58
2021/08/21 13:51:22;;;;;;;12.40;7.53;;;;;;;;;;5111829;28;20149;-58
2021/08/21 13:53:49;;;;;;;10.40;7.83;;;;;;;;;;5108428;28;20035;-59
2021/08/21 13:56:15;;;;;;;16.13;9.53;;;;;;;;;;5109704;28;20012;-58
2021/08/21 13:58:42;;;;;;;12.07;8.80;;;;;;;;;;5089330;28;20032;-58
2021/08/21 14:01:09;;;;;;;12.20;9.27;;;;;;;;;;5090493;28;20024;-58
2021/08/21 14:03:36;;;;;;;15.47;8.87;;;;;;;;;;5094432;28;20016;-58
2021/08/21 14:06:04;;;;;;;14.13;8.93;;;;;;;;;;5094457;28;20024;-58
2021/08/21 14:08:31;;;;;;;15.70;9.23;;;;;;;;;;5111758;28;20024;-58
2021/08/21 14:10:58;;;;;;;13.57;8.20;;;;;;;;;;5114450;28;20032;-58
2021/08/21 14:13:25;;;;;;;13.80;8.47;;;;;;;;;;5111942;28;20030;-58
2021/08/21 14:15:51;;;;;;;11.50;7.73;;;;;;;;;;5109119;28;20038;-59
2021/08/21 14:18:19;;;;;;;15.63;8.00;;;;;;;;;;5108980;28;20028;-59
2021/08/21 14:20:46;;;;;;;12.20;7.20;;;;;;;;;;5089000;28;20044;-58
2021/08/21 14:23:12;;;;;;;9.20;6.43;;;;;;;;;;5090491;28;20035;-58
2021/08/21 14:25:40;;;;;;;9.57;6.77;;;;;;;;;;5093926;28;20036;-58
2021/08/21 14:28:07;;;;;;;12.43;7.33;;;;;;;;;;5093728;28;20035;-58
2021/08/21 14:30:35;;;;;;;13.97;7.50;;;;;;;;;;5093824;28;20465;-59
2021/08/21 14:33:02;;;;;;;10.83;7.57;;;;;;;;;;5112899;28;20119;-59
2021/08/21 14:35:29;;;;;;;8.90;5.73;;;;;;;;;;5112234;28;20028;-58
2021/08/21 14:37:56;;;;;;;6.67;5.07;;;;;;;;;;5108656;28;20448;-58
2021/08/21 14:40:22;;;;;;;9.63;4.33;;;;;;;;;;5108792;28;20488;-59
2021/08/21 14:42:49;;;;;;;6.17;4.10;;;;;;;;;;5104912;28;20028;-59
2021/08/21 14:45:16;;;;;;;8.53;4.80;;;;;;;;;;5089153;28;20091;-59
2021/08/21 14:47:43;;;;;;;7.80;4.97;;;;;;;;;;5093759;28;20028;-59
2021/08/21 14:50:10;;;;;;;6.77;4.67;;;;;;;;;;5093105;28;20020;-58